createdAt,value
2019-02-06T14:21:38.455Z,23.22
2019-02-06T14:24:23.690Z,27.50
2019-02-06T14:28:51.081Z,26.02
2019-02-06T14:35:08.003Z,21.93
2019-02-06T14:38:54.497Z,23.75
2019-02-06T14:42:32.055Z,19.70
2019-02-06T14:47:44.089Z,16.52
2019-02-06T14:51:03.066Z,24.87
2019-02-06T14:54:04.352Z,23.65
2019-02-06T14:57:27.585Z,21.80
2019-02-06T15:00:20.581Z,26.37
2019-02-06T15:03:28.765Z,26.20
2019-02-06T15:06:23.361Z,22.17
2019-02-06T15:09:40.356Z,21.42
2019-02-06T15:13:05.588Z,26.55
2019-02-06T15:16:15.891Z,27.45
2019-02-06T15:19:30.614Z,25.25
2019-02-06T15:22:55.975Z,22.90
2019-02-06T15:25:55.707Z,25.68
2019-02-06T15:29:00.388Z,27.93
2019-02-06T15:31:58.941Z,27.52
2019-02-06T15:35:40.608Z,23.02
2019-02-06T15:39:15.472Z,25.00
2019-02-06T15:42:33.373Z,22.70
2019-02-06T15:45:58.004Z,23.57
2019-02-06T15:49:14.295Z,22.05
2019-02-06T15:52:28.862Z,23.05
2019-02-06T15:55:45.783Z,21.77
2019-02-06T15:58:39.846Z,24.02
2019-02-06T16:01:39.503Z,24.95
2019-02-06T16:05:00.309Z,28.50
2019-02-06T16:08:20.117Z,27.37
2019-02-06T16:11:41.515Z,26.40
2019-02-06T16:14:45.236Z,26.68
2019-02-06T16:18:08.812Z,33.08
2019-02-06T16:21:40.455Z,22.25
2019-02-06T16:24:58.736Z,27.45
2019-02-06T16:28:23.679Z,37.65
2019-02-06T16:31:23.945Z,27.27
2019-02-06T16:34:33.978Z,35.00
2019-02-06T16:37:56.363Z,29.50
2019-02-06T16:41:24.756Z,31.65
2019-02-06T16:44:21.568Z,27.62
2019-02-06T16:47:20.492Z,26.20
2019-02-06T16:50:27.901Z,25.70
2019-02-06T16:53:32.430Z,25.82
2019-02-06T16:56:50.634Z,31.77
2019-02-06T17:00:05.951Z,29.15
2019-02-06T17:03:17.973Z,21.70
2019-02-06T17:06:08.708Z,27.65
2019-02-06T17:09:19.442Z,26.93
2019-02-06T17:12:26.652Z,29.40
2019-02-06T17:15:28.969Z,23.38
2019-02-06T17:18:47.135Z,24.07
2019-02-06T17:22:14.699Z,27.05
2019-02-06T17:25:31.016Z,24.70
2019-02-06T17:28:38.735Z,21.73
2019-02-06T17:31:33.534Z,25.25
2019-02-06T17:34:38.751Z,27.87
2019-02-06T17:38:16.554Z,28.05
2019-02-06T17:41:22.573Z,28.55
2019-02-06T17:44:34.122Z,30.17
2019-02-06T17:47:35.722Z,27.52
2019-02-06T17:50:29.458Z,32.40
2019-02-06T17:53:57.688Z,26.60
2019-02-06T17:56:34.890Z,23.47
2019-02-06T17:59:13.268Z,21.40
2019-02-06T18:01:54.301Z,24.35
2019-02-06T18:04:38.024Z,24.32
2019-02-06T18:07:16.223Z,31.52
2019-02-06T18:09:53.914Z,25.37
2019-02-06T18:12:31.116Z,25.48
2019-02-06T18:15:09.854Z,27.25
2019-02-06T18:17:48.472Z,24.82
2019-02-06T18:20:26.050Z,29.65
2019-02-06T18:23:03.784Z,29.10
2019-02-06T18:25:45.583Z,29.90
2019-02-06T18:28:22.804Z,27.82
2019-02-06T18:31:01.899Z,25.82
2019-02-06T18:33:39.801Z,26.12
2019-02-06T18:36:20.346Z,24.32
2019-02-06T18:38:58.425Z,25.32
2019-02-06T18:41:36.471Z,25.68
2019-02-06T18:44:13.791Z,28.07
2019-02-06T18:46:53.959Z,24.00
2019-02-06T18:49:32.517Z,25.75
2019-02-06T18:52:20.175Z,25.40
2019-02-06T18:54:50.631Z,24.67
2019-02-06T18:57:31.409Z,25.05
2019-02-06T19:00:10.518Z,25.40
2019-02-06T19:02:51.659Z,21.77
2019-02-06T19:05:33.656Z,22.20
2019-02-06T19:08:11.096Z,28.92
2019-02-06T19:10:49.601Z,26.37
2019-02-06T19:13:28.103Z,26.20
2019-02-06T19:16:05.531Z,25.75
2019-02-06T19:18:42.758Z,24.23
2019-02-06T19:21:20.050Z,25.30
2019-02-06T19:24:00.450Z,27.67
2019-02-06T19:26:39.135Z,26.65
2019-02-06T19:29:16.518Z,24.70
2019-02-06T19:31:53.985Z,28.65
2019-02-06T19:34:31.387Z,23.65
2019-02-06T19:37:08.655Z,26.45
2019-02-06T19:39:45.844Z,27.80
2019-02-06T19:42:23.247Z,31.12
2019-02-06T19:45:01.712Z,30.45
2019-02-06T19:47:41.805Z,28.90
2019-02-06T19:50:22.671Z,24.07
2019-02-06T19:52:59.637Z,28.65
2019-02-06T19:55:39.585Z,30.00
2019-02-06T19:58:17.840Z,37.65
2019-02-06T20:00:54.948Z,27.75
2019-02-06T20:03:33.036Z,25.65
2019-02-06T20:06:10.392Z,30.37
2019-02-06T20:08:47.660Z,25.52
2019-02-06T20:11:25.036Z,32.45
2019-02-06T20:14:02.250Z,24.47
2019-02-06T20:16:39.182Z,27.48
2019-02-06T20:19:17.172Z,24.45
2019-02-06T20:21:54.368Z,31.00
2019-02-06T20:24:31.761Z,31.75
2019-02-06T20:27:09.292Z,30.85
2019-02-06T20:29:47.210Z,26.85
2019-02-06T20:32:24.557Z,29.98
2019-02-06T20:35:01.807Z,33.42
2019-02-06T20:37:40.836Z,33.33
2019-02-06T20:40:23.367Z,34.85
2019-02-06T20:43:04.060Z,39.55
2019-02-06T20:45:41.587Z,34.25
2019-02-06T20:48:18.833Z,32.25
2019-02-06T20:50:56.039Z,31.25
2019-02-06T20:53:32.909Z,30.72
2019-02-06T20:56:12.842Z,52.23
2019-02-06T20:58:49.793Z,49.08
2019-02-06T21:01:27.084Z,36.35
2019-02-06T21:04:05.332Z,28.98
2019-02-06T21:06:42.553Z,28.57
2019-02-06T21:09:22.499Z,22.65
2019-02-06T21:11:59.630Z,27.20
2019-02-06T21:14:37.598Z,25.75
2019-02-06T21:17:14.785Z,22.70
2019-02-06T21:19:51.999Z,25.95
2019-02-06T21:22:30.144Z,25.75
2019-02-06T21:25:09.601Z,25.37
2019-02-06T21:27:46.985Z,28.38
2019-02-06T21:30:26.463Z,28.42
2019-02-06T21:33:03.838Z,24.07
2019-02-06T21:35:41.332Z,32.38
2019-02-06T21:38:18.323Z,33.35
2019-02-06T21:40:55.621Z,30.92
2019-02-06T21:43:43.658Z,34.50
2019-02-06T21:46:11.423Z,27.80
2019-02-06T21:48:48.395Z,23.98
2019-02-06T21:51:25.840Z,27.93
2019-02-06T21:54:03.078Z,31.45
2019-02-06T21:56:40.393Z,29.75
2019-02-06T21:59:17.542Z,33.40
2019-02-06T22:01:54.798Z,27.30
2019-02-06T22:04:31.844Z,28.25
2019-02-06T22:07:08.913Z,28.55
2019-02-06T22:09:46.075Z,30.75
2019-02-06T22:12:27.719Z,29.98
2019-02-06T22:15:06.228Z,34.48
2019-02-06T22:17:45.049Z,34.65
2019-02-06T22:20:22.296Z,38.15
2019-02-06T22:22:59.308Z,34.10
2019-02-06T22:25:39.583Z,37.08
2019-02-06T22:28:16.784Z,34.70
2019-02-06T22:30:54.206Z,38.05
2019-02-06T22:33:31.082Z,33.88
2019-02-06T22:36:08.265Z,34.00
2019-02-06T22:38:46.849Z,33.35
2019-02-06T22:41:24.995Z,37.15
2019-02-06T22:44:06.694Z,35.45
2019-02-06T22:46:40.921Z,34.73
2019-02-06T22:49:19.602Z,32.35
2019-02-06T22:51:56.861Z,27.60
2019-02-06T22:54:34.894Z,30.05
2019-02-06T22:57:12.925Z,29.55
2019-02-06T22:59:56.448Z,27.45
2019-02-06T23:02:37.731Z,27.15
2019-02-06T23:05:15.114Z,31.12
2019-02-06T23:07:52.375Z,27.98
2019-02-06T23:10:29.969Z,25.10
2019-02-06T23:13:07.148Z,25.85
2019-02-06T23:15:45.269Z,29.18
2019-02-06T23:18:25.590Z,29.75
2019-02-06T23:21:02.966Z,33.28
2019-02-06T23:23:41.978Z,36.10
2019-02-06T23:26:22.075Z,34.35
2019-02-06T23:28:59.148Z,34.50
2019-02-06T23:31:36.227Z,33.02
2019-02-06T23:34:16.083Z,34.63
2019-02-06T23:36:53.236Z,37.90
2019-02-06T23:39:31.467Z,35.40
2019-02-06T23:42:08.668Z,37.75
2019-02-06T23:44:49.989Z,32.93
2019-02-06T23:47:30.105Z,37.03
2019-02-06T23:50:07.415Z,36.77
2019-02-06T23:52:45.429Z,36.98
2019-02-06T23:55:23.849Z,34.73
2019-02-06T23:58:01.691Z,40.33
